sensor_id;sensor_type;location;lat;lon;timestamp;P1;durP1;ratioP1;P2;durP2;ratioP2
78410;SDS011;67706;51.074;-1.796;2023-08-17T00:02:10;5.40;;;2.53;;
78410;SDS011;67706;51.074;-1.796;2023-08-17T00:04:36;4.13;;;2.60;;
78410;SDS011;67706;51.074;-1.796;2023-08-17T00:09:28;4.90;;;2.70;;
78410;SDS011;67706;51.074;-1.796;2023-08-17T00:11:55;5.40;;;3.13;;
78410;SDS011;67706;51.074;-1.796;2023-08-17T00:14:21;4.57;;;2.97;;
78410;SDS011;67706;51.074;-1.796;2023-08-17T00:16:48;9.77;;;3.10;;
78410;SDS011;67706;51.074;-1.796;2023-08-17T00:19:14;6.07;;;2.95;;
78410;SDS011;67706;51.074;-1.796;2023-08-17T00:24:07;3.63;;;2.22;;
78410;SDS011;67706;51.074;-1.796;2023-08-17T00:26:33;4.68;;;3.03;;
78410;SDS011;67706;51.074;-1.796;2023-08-17T00:28:59;7.20;;;2.50;;
78410;SDS011;67706;51.074;-1.796;2023-08-17T00:31:26;4.20;;;2.38;;
78410;SDS011;67706;51.074;-1.796;2023-08-17T00:33:52;4.25;;;2.95;;
78410;SDS011;67706;51.074;-1.796;2023-08-17T00:36:18;4.53;;;2.75;;
78410;SDS011;67706;51.074;-1.796;2023-08-17T00:41:09;6.32;;;2.97;;
78410;SDS011;67706;51.074;-1.796;2023-08-17T00:43:35;6.03;;;3.38;;
78410;SDS011;67706;51.074;-1.796;2023-08-17T00:46:02;4.53;;;2.80;;
78410;SDS011;67706;51.074;-1.796;2023-08-17T00:48:29;3.45;;;2.80;;
78410;SDS011;67706;51.074;-1.796;2023-08-17T00:50:56;6.70;;;3.00;;
78410;SDS011;67706;51.074;-1.796;2023-08-17T00:53:24;5.05;;;3.00;;
78410;SDS011;67706;51.074;-1.796;2023-08-17T00:55:53;5.40;;;3.22;;
78410;SDS011;67706;51.074;-1.796;2023-08-17T00:58:20;5.03;;;2.65;;
78410;SDS011;67706;51.074;-1.796;2023-08-17T01:00:46;5.75;;;2.85;;
78410;SDS011;67706;51.074;-1.796;2023-08-17T01:03:14;4.43;;;2.47;;
78410;SDS011;67706;51.074;-1.796;2023-08-17T01:05:41;4.43;;;3.00;;
78410;SDS011;67706;51.074;-1.796;2023-08-17T01:10:34;6.50;;;2.60;;
78410;SDS011;67706;51.074;-1.796;2023-08-17T01:13:09;5.30;;;3.20;;
78410;SDS011;67706;51.074;-1.796;2023-08-17T01:15:42;4.30;;;2.88;;
78410;SDS011;67706;51.074;-1.796;2023-08-17T01:18:17;5.78;;;2.80;;
78410;SDS011;67706;51.074;-1.796;2023-08-17T01:20:48;5.88;;;2.90;;
78410;SDS011;67706;51.074;-1.796;2023-08-17T01:23:15;4.65;;;2.65;;
78410;SDS011;67706;51.074;-1.796;2023-08-17T01:25:41;4.88;;;2.30;;
78410;SDS011;67706;51.074;-1.796;2023-08-17T01:30:35;4.43;;;2.50;;
78410;SDS011;67706;51.074;-1.796;2023-08-17T01:33:06;5.25;;;2.35;;
78410;SDS011;67706;51.074;-1.796;2023-08-17T01:35:34;5.32;;;2.05;;
78410;SDS011;67706;51.074;-1.796;2023-08-17T01:38:09;3.97;;;2.17;;
78410;SDS011;67706;51.074;-1.796;2023-08-17T01:40:39;4.18;;;2.15;;
78410;SDS011;67706;51.074;-1.796;2023-08-17T01:43:06;4.05;;;2.22;;
78410;SDS011;67706;51.074;-1.796;2023-08-17T01:45:34;3.70;;;2.42;;
78410;SDS011;67706;51.074;-1.796;2023-08-17T01:48:00;4.13;;;2.75;;
78410;SDS011;67706;51.074;-1.796;2023-08-17T01:50:27;3.95;;;2.75;;
78410;SDS011;67706;51.074;-1.796;2023-08-17T01:55:21;7.55;;;2.50;;
78410;SDS011;67706;51.074;-1.796;2023-08-17T01:57:48;4.40;;;2.90;;
78410;SDS011;67706;51.074;-1.796;2023-08-17T02:00:14;3.90;;;2.58;;
78410;SDS011;67706;51.074;-1.796;2023-08-17T02:02:41;4.25;;;2.58;;
78410;SDS011;67706;51.074;-1.796;2023-08-17T02:05:08;5.47;;;2.92;;
78410;SDS011;67706;51.074;-1.796;2023-08-17T02:07:34;6.05;;;2.95;;
78410;SDS011;67706;51.074;-1.796;2023-08-17T02:10:00;6.00;;;2.60;;
78410;SDS011;67706;51.074;-1.796;2023-08-17T02:12:26;5.07;;;3.05;;
78410;SDS011;67706;51.074;-1.796;2023-08-17T02:14:52;5.40;;;2.90;;
78410;SDS011;67706;51.074;-1.796;2023-08-17T02:17:19;4.57;;;2.63;;
78410;SDS011;67706;51.074;-1.796;2023-08-17T02:19:46;3.67;;;2.30;;
78410;SDS011;67706;51.074;-1.796;2023-08-17T02:22:12;4.53;;;2.97;;
78410;SDS011;67706;51.074;-1.796;2023-08-17T02:24:39;4.25;;;2.95;;
78410;SDS011;67706;51.074;-1.796;2023-08-17T02:27:06;5.50;;;2.88;;
78410;SDS011;67706;51.074;-1.796;2023-08-17T02:29:33;4.93;;;2.97;;
78410;SDS011;67706;51.074;-1.796;2023-08-17T02:32:00;4.45;;;2.63;;
78410;SDS011;67706;51.074;-1.796;2023-08-17T02:34:26;5.45;;;3.17;;
78410;SDS011;67706;51.074;-1.796;2023-08-17T02:36:52;3.70;;;2.47;;
78410;SDS011;67706;51.074;-1.796;2023-08-17T02:39:18;6.57;;;3.50;;
78410;SDS011;67706;51.074;-1.796;2023-08-17T02:44:10;5.78;;;2.83;;
78410;SDS011;67706;51.074;-1.796;2023-08-17T02:46:36;4.35;;;3.13;;
78410;SDS011;67706;51.074;-1.796;2023-08-17T02:51:29;8.15;;;4.03;;
78410;SDS011;67706;51.074;-1.796;2023-08-17T02:53:55;5.97;;;3.88;;
78410;SDS011;67706;51.074;-1.796;2023-08-17T02:58:47;6.88;;;4.18;;
78410;SDS011;67706;51.074;-1.796;2023-08-17T03:03:39;8.60;;;4.25;;
78410;SDS011;67706;51.074;-1.796;2023-08-17T03:08:32;10.13;;;5.43;;
78410;SDS011;67706;51.074;-1.796;2023-08-17T03:13:24;10.30;;;5.40;;
78410;SDS011;67706;51.074;-1.796;2023-08-17T03:15:50;11.43;;;5.88;;
78410;SDS011;67706;51.074;-1.796;2023-08-17T03:18:16;9.88;;;6.28;;
78410;SDS011;67706;51.074;-1.796;2023-08-17T03:20:43;11.63;;;5.78;;
78410;SDS011;67706;51.074;-1.796;2023-08-17T03:23:10;11.45;;;6.45;;
78410;SDS011;67706;51.074;-1.796;2023-08-17T03:25:36;9.38;;;6.07;;
78410;SDS011;67706;51.074;-1.796;2023-08-17T03:28:03;10.93;;;6.35;;
78410;SDS011;67706;51.074;-1.796;2023-08-17T03:30:29;11.48;;;6.32;;
78410;SDS011;67706;51.074;-1.796;2023-08-17T03:35:21;13.63;;;7.15;;
78410;SDS011;67706;51.074;-1.796;2023-08-17T03:37:47;17.20;;;8.45;;
78410;SDS011;67706;51.074;-1.796;2023-08-17T03:42:40;16.42;;;8.20;;
78410;SDS011;67706;51.074;-1.796;2023-08-17T03:45:07;18.73;;;8.85;;
78410;SDS011;67706;51.074;-1.796;2023-08-17T03:47:33;22.52;;;10.70;;
78410;SDS011;67706;51.074;-1.796;2023-08-17T03:49:59;21.30;;;10.70;;
78410;SDS011;67706;51.074;-1.796;2023-08-17T03:54:51;24.92;;;9.93;;
78410;SDS011;67706;51.074;-1.796;2023-08-17T03:59:44;29.40;;;10.35;;
78410;SDS011;67706;51.074;-1.796;2023-08-17T04:02:10;31.60;;;12.75;;
78410;SDS011;67706;51.074;-1.796;2023-08-17T04:04:36;30.40;;;11.82;;
78410;SDS011;67706;51.074;-1.796;2023-08-17T04:09:28;31.10;;;11.80;;
78410;SDS011;67706;51.074;-1.796;2023-08-17T04:11:54;37.58;;;13.05;;
78410;SDS011;67706;51.074;-1.796;2023-08-17T04:14:23;38.92;;;12.95;;
78410;SDS011;67706;51.074;-1.796;2023-08-17T04:16:49;38.65;;;13.27;;
78410;SDS011;67706;51.074;-1.796;2023-08-17T04:19:14;33.55;;;12.73;;
78410;SDS011;67706;51.074;-1.796;2023-08-17T04:21:41;37.10;;;12.95;;
78410;SDS011;67706;51.074;-1.796;2023-08-17T04:24:06;41.42;;;14.43;;
78410;SDS011;67706;51.074;-1.796;2023-08-17T04:26:32;35.00;;;13.25;;
78410;SDS011;67706;51.074;-1.796;2023-08-17T04:31:25;29.85;;;12.25;;
78410;SDS011;67706;51.074;-1.796;2023-08-17T04:33:51;35.20;;;12.88;;
78410;SDS011;67706;51.074;-1.796;2023-08-17T04:36:18;31.48;;;13.45;;
78410;SDS011;67706;51.074;-1.796;2023-08-17T04:41:09;32.03;;;12.55;;
78410;SDS011;67706;51.074;-1.796;2023-08-17T04:43:36;28.73;;;11.48;;
78410;SDS011;67706;51.074;-1.796;2023-08-17T04:48:28;32.72;;;12.73;;
78410;SDS011;67706;51.074;-1.796;2023-08-17T04:50:54;37.90;;;13.68;;
78410;SDS011;67706;51.074;-1.796;2023-08-17T04:55:46;26.52;;;11.75;;
78410;SDS011;67706;51.074;-1.796;2023-08-17T05:00:38;32.05;;;13.20;;
78410;SDS011;67706;51.074;-1.796;2023-08-17T05:03:04;29.38;;;13.00;;
78410;SDS011;67706;51.074;-1.796;2023-08-17T05:05:31;29.40;;;12.32;;
78410;SDS011;67706;51.074;-1.796;2023-08-17T05:07:57;32.08;;;13.32;;
78410;SDS011;67706;51.074;-1.796;2023-08-17T05:10:23;30.13;;;12.40;;
78410;SDS011;67706;51.074;-1.796;2023-08-17T05:12:49;33.58;;;13.27;;
78410;SDS011;67706;51.074;-1.796;2023-08-17T05:15:16;31.60;;;11.38;;
78410;SDS011;67706;51.074;-1.796;2023-08-17T05:17:42;30.05;;;12.60;;
78410;SDS011;67706;51.074;-1.796;2023-08-17T05:20:08;33.50;;;13.38;;
78410;SDS011;67706;51.074;-1.796;2023-08-17T05:22:35;27.90;;;12.48;;
78410;SDS011;67706;51.074;-1.796;2023-08-17T05:25:01;29.33;;;12.88;;
78410;SDS011;67706;51.074;-1.796;2023-08-17T05:27:28;29.58;;;12.05;;
78410;SDS011;67706;51.074;-1.796;2023-08-17T05:29:54;25.58;;;12.48;;
78410;SDS011;67706;51.074;-1.796;2023-08-17T05:34:46;26.10;;;12.13;;
78410;SDS011;67706;51.074;-1.796;2023-08-17T05:37:12;28.15;;;12.65;;
78410;SDS011;67706;51.074;-1.796;2023-08-17T05:39:40;34.42;;;12.57;;
78410;SDS011;67706;51.074;-1.796;2023-08-17T05:42:07;29.75;;;11.63;;
78410;SDS011;67706;51.074;-1.796;2023-08-17T05:46:58;29.52;;;12.75;;
78410;SDS011;67706;51.074;-1.796;2023-08-17T05:49:24;32.38;;;12.15;;
78410;SDS011;67706;51.074;-1.796;2023-08-17T05:54:16;27.10;;;11.55;;
78410;SDS011;67706;51.074;-1.796;2023-08-17T05:56:43;30.20;;;12.45;;
78410;SDS011;67706;51.074;-1.796;2023-08-17T05:59:11;31.17;;;12.95;;
78410;SDS011;67706;51.074;-1.796;2023-08-17T06:01:38;31.90;;;13.25;;
78410;SDS011;67706;51.074;-1.796;2023-08-17T06:04:05;29.20;;;12.20;;
78410;SDS011;67706;51.074;-1.796;2023-08-17T06:06:31;28.92;;;13.00;;
78410;SDS011;67706;51.074;-1.796;2023-08-17T06:08:57;28.25;;;13.02;;
78410;SDS011;67706;51.074;-1.796;2023-08-17T06:13:50;28.95;;;12.40;;
78410;SDS011;67706;51.074;-1.796;2023-08-17T06:16:16;30.15;;;11.40;;
78410;SDS011;67706;51.074;-1.796;2023-08-17T06:18:42;29.33;;;11.75;;
78410;SDS011;67706;51.074;-1.796;2023-08-17T06:23:34;26.08;;;10.80;;
78410;SDS011;67706;51.074;-1.796;2023-08-17T06:28:26;22.45;;;11.13;;
78410;SDS011;67706;51.074;-1.796;2023-08-17T06:30:54;26.08;;;11.57;;
78410;SDS011;67706;51.074;-1.796;2023-08-17T06:33:21;29.90;;;11.38;;
78410;SDS011;67706;51.074;-1.796;2023-08-17T06:35:47;23.48;;;11.65;;
78410;SDS011;67706;51.074;-1.796;2023-08-17T06:38:13;29.10;;;13.95;;
78410;SDS011;67706;51.074;-1.796;2023-08-17T06:40:40;28.45;;;11.75;;
78410;SDS011;67706;51.074;-1.796;2023-08-17T06:43:06;22.02;;;10.82;;
78410;SDS011;67706;51.074;-1.796;2023-08-17T06:45:32;23.13;;;10.57;;
78410;SDS011;67706;51.074;-1.796;2023-08-17T06:48:00;22.30;;;10.90;;
78410;SDS011;67706;51.074;-1.796;2023-08-17T06:50:25;23.48;;;11.18;;
78410;SDS011;67706;51.074;-1.796;2023-08-17T06:52:53;23.45;;;10.13;;
78410;SDS011;67706;51.074;-1.796;2023-08-17T06:55:19;21.05;;;10.77;;
78410;SDS011;67706;51.074;-1.796;2023-08-17T06:57:46;22.92;;;10.57;;
78410;SDS011;67706;51.074;-1.796;2023-08-17T07:00:15;20.13;;;10.55;;
78410;SDS011;67706;51.074;-1.796;2023-08-17T07:02:43;20.00;;;10.52;;
78410;SDS011;67706;51.074;-1.796;2023-08-17T07:05:10;19.33;;;10.15;;
78410;SDS011;67706;51.074;-1.796;2023-08-17T07:07:36;20.90;;;10.25;;
78410;SDS011;67706;51.074;-1.796;2023-08-17T07:10:04;24.38;;;10.07;;
78410;SDS011;67706;51.074;-1.796;2023-08-17T07:12:32;21.15;;;10.38;;
78410;SDS011;67706;51.074;-1.796;2023-08-17T07:17:24;24.25;;;9.93;;
78410;SDS011;67706;51.074;-1.796;2023-08-17T07:22:16;22.40;;;11.07;;
78410;SDS011;67706;51.074;-1.796;2023-08-17T07:24:42;22.17;;;10.27;;
78410;SDS011;67706;51.074;-1.796;2023-08-17T07:27:08;24.48;;;10.40;;
78410;SDS011;67706;51.074;-1.796;2023-08-17T07:29:34;22.42;;;10.25;;
78410;SDS011;67706;51.074;-1.796;2023-08-17T07:32:01;21.17;;;10.07;;
78410;SDS011;67706;51.074;-1.796;2023-08-17T07:34:27;23.75;;;10.55;;
78410;SDS011;67706;51.074;-1.796;2023-08-17T07:36:53;21.33;;;10.75;;
78410;SDS011;67706;51.074;-1.796;2023-08-17T07:39:20;24.45;;;11.35;;
78410;SDS011;67706;51.074;-1.796;2023-08-17T07:41:46;22.13;;;10.63;;
78410;SDS011;67706;51.074;-1.796;2023-08-17T07:46:38;17.65;;;9.68;;
78410;SDS011;67706;51.074;-1.796;2023-08-17T07:49:04;20.80;;;9.88;;
78410;SDS011;67706;51.074;-1.796;2023-08-17T07:51:30;20.55;;;9.38;;
78410;SDS011;67706;51.074;-1.796;2023-08-17T07:53:59;20.25;;;9.82;;
78410;SDS011;67706;51.074;-1.796;2023-08-17T07:56:25;18.42;;;9.40;;
78410;SDS011;67706;51.074;-1.796;2023-08-17T07:58:52;16.92;;;9.23;;
78410;SDS011;67706;51.074;-1.796;2023-08-17T08:01:19;22.67;;;10.05;;
78410;SDS011;67706;51.074;-1.796;2023-08-17T08:03:45;17.48;;;9.85;;
78410;SDS011;67706;51.074;-1.796;2023-08-17T08:08:37;17.73;;;9.52;;
78410;SDS011;67706;51.074;-1.796;2023-08-17T08:11:03;17.90;;;9.45;;
78410;SDS011;67706;51.074;-1.796;2023-08-17T08:13:30;19.58;;;8.75;;
78410;SDS011;67706;51.074;-1.796;2023-08-17T08:15:57;16.67;;;8.77;;
78410;SDS011;67706;51.074;-1.796;2023-08-17T08:18:24;16.98;;;8.13;;
78410;SDS011;67706;51.074;-1.796;2023-08-17T08:20:50;16.02;;;8.32;;
78410;SDS011;67706;51.074;-1.796;2023-08-17T08:23:16;18.85;;;8.88;;
78410;SDS011;67706;51.074;-1.796;2023-08-17T08:25:43;20.95;;;8.75;;
78410;SDS011;67706;51.074;-1.796;2023-08-17T08:28:09;18.27;;;8.38;;
78410;SDS011;67706;51.074;-1.796;2023-08-17T08:30:36;16.08;;;8.65;;
78410;SDS011;67706;51.074;-1.796;2023-08-17T08:33:02;16.80;;;8.48;;
78410;SDS011;67706;51.074;-1.796;2023-08-17T08:35:28;19.17;;;9.23;;
78410;SDS011;67706;51.074;-1.796;2023-08-17T08:37:54;18.38;;;9.70;;
78410;SDS011;67706;51.074;-1.796;2023-08-17T08:40:21;18.00;;;9.70;;
78410;SDS011;67706;51.074;-1.796;2023-08-17T08:45:19;17.05;;;8.00;;
78410;SDS011;67706;51.074;-1.796;2023-08-17T08:47:46;15.55;;;8.68;;
78410;SDS011;67706;51.074;-1.796;2023-08-17T08:50:15;17.08;;;8.20;;
78410;SDS011;67706;51.074;-1.796;2023-08-17T08:52:44;17.05;;;8.80;;
78410;SDS011;67706;51.074;-1.796;2023-08-17T08:55:18;18.42;;;8.82;;
78410;SDS011;67706;51.074;-1.796;2023-08-17T08:57:46;15.48;;;8.10;;
78410;SDS011;67706;51.074;-1.796;2023-08-17T09:00:15;18.90;;;9.45;;
78410;SDS011;67706;51.074;-1.796;2023-08-17T09:02:42;13.80;;;8.20;;
78410;SDS011;67706;51.074;-1.796;2023-08-17T09:05:10;15.77;;;8.27;;
78410;SDS011;67706;51.074;-1.796;2023-08-17T09:07:36;13.95;;;8.90;;
78410;SDS011;67706;51.074;-1.796;2023-08-17T09:10:03;12.43;;;7.40;;
78410;SDS011;67706;51.074;-1.796;2023-08-17T09:12:29;13.23;;;7.88;;
78410;SDS011;67706;51.074;-1.796;2023-08-17T09:14:56;14.02;;;7.40;;
78410;SDS011;67706;51.074;-1.796;2023-08-17T09:17:23;13.10;;;7.38;;
78410;SDS011;67706;51.074;-1.796;2023-08-17T09:19:49;10.63;;;6.53;;
78410;SDS011;67706;51.074;-1.796;2023-08-17T09:22:19;17.48;;;8.38;;
78410;SDS011;67706;51.074;-1.796;2023-08-17T09:24:48;11.68;;;7.82;;
78410;SDS011;67706;51.074;-1.796;2023-08-17T09:27:14;11.65;;;6.80;;
78410;SDS011;67706;51.074;-1.796;2023-08-17T09:29:42;12.77;;;7.03;;
78410;SDS011;67706;51.074;-1.796;2023-08-17T09:32:10;17.13;;;6.78;;
78410;SDS011;67706;51.074;-1.796;2023-08-17T09:34:37;11.45;;;7.53;;
78410;SDS011;67706;51.074;-1.796;2023-08-17T09:37:03;12.45;;;5.85;;
78410;SDS011;67706;51.074;-1.796;2023-08-17T09:39:30;9.93;;;6.13;;
78410;SDS011;67706;51.074;-1.796;2023-08-17T09:41:56;12.32;;;5.97;;
78410;SDS011;67706;51.074;-1.796;2023-08-17T09:44:23;9.75;;;4.72;;
78410;SDS011;67706;51.074;-1.796;2023-08-17T09:46:49;7.43;;;4.57;;
78410;SDS011;67706;51.074;-1.796;2023-08-17T09:49:16;6.80;;;4.07;;
78410;SDS011;67706;51.074;-1.796;2023-08-17T09:51:43;9.80;;;4.25;;
78410;SDS011;67706;51.074;-1.796;2023-08-17T09:54:09;8.25;;;3.65;;
78410;SDS011;67706;51.074;-1.796;2023-08-17T09:56:46;7.78;;;3.80;;
78410;SDS011;67706;51.074;-1.796;2023-08-17T09:59:12;16.25;;;7.47;;
78410;SDS011;67706;51.074;-1.796;2023-08-17T10:01:38;6.70;;;4.00;;
78410;SDS011;67706;51.074;-1.796;2023-08-17T10:04:06;7.47;;;4.07;;
78410;SDS011;67706;51.074;-1.796;2023-08-17T10:06:32;17.95;;;4.90;;
78410;SDS011;67706;51.074;-1.796;2023-08-17T10:09:00;9.50;;;3.55;;
78410;SDS011;67706;51.074;-1.796;2023-08-17T10:11:27;8.98;;;4.72;;
78410;SDS011;67706;51.074;-1.796;2023-08-17T10:14:02;9.77;;;4.28;;
78410;SDS011;67706;51.074;-1.796;2023-08-17T10:16:39;7.72;;;4.43;;
78410;SDS011;67706;51.074;-1.796;2023-08-17T10:21:39;6.28;;;3.55;;
78410;SDS011;67706;51.074;-1.796;2023-08-17T10:24:12;7.18;;;3.88;;
78410;SDS011;67706;51.074;-1.796;2023-08-17T10:26:39;8.38;;;4.05;;
78410;SDS011;67706;51.074;-1.796;2023-08-17T10:29:07;9.48;;;4.32;;
78410;SDS011;67706;51.074;-1.796;2023-08-17T10:31:34;8.00;;;3.70;;
78410;SDS011;67706;51.074;-1.796;2023-08-17T10:34:00;4.43;;;2.42;;
78410;SDS011;67706;51.074;-1.796;2023-08-17T10:36:27;5.68;;;2.80;;
78410;SDS011;67706;51.074;-1.796;2023-08-17T10:41:46;8.48;;;3.05;;
78410;SDS011;67706;51.074;-1.796;2023-08-17T10:44:13;4.80;;;2.63;;
78410;SDS011;67706;51.074;-1.796;2023-08-17T10:46:40;8.30;;;2.90;;
78410;SDS011;67706;51.074;-1.796;2023-08-17T10:49:24;4.18;;;2.30;;
78410;SDS011;67706;51.074;-1.796;2023-08-17T10:52:00;7.05;;;2.53;;
78410;SDS011;67706;51.074;-1.796;2023-08-17T10:54:35;5.28;;;2.45;;
78410;SDS011;67706;51.074;-1.796;2023-08-17T11:00:14;5.25;;;2.30;;
78410;SDS011;67706;51.074;-1.796;2023-08-17T11:02:42;5.72;;;2.60;;
78410;SDS011;67706;51.074;-1.796;2023-08-17T11:05:09;6.18;;;3.47;;
78410;SDS011;67706;51.074;-1.796;2023-08-17T11:07:40;4.38;;;2.70;;
78410;SDS011;67706;51.074;-1.796;2023-08-17T11:10:11;6.65;;;3.60;;
78410;SDS011;67706;51.074;-1.796;2023-08-17T11:12:38;5.95;;;2.60;;
78410;SDS011;67706;51.074;-1.796;2023-08-17T11:15:06;7.93;;;3.35;;
78410;SDS011;67706;51.074;-1.796;2023-08-17T11:17:34;5.60;;;3.00;;
78410;SDS011;67706;51.074;-1.796;2023-08-17T11:20:00;7.45;;;3.20;;
78410;SDS011;67706;51.074;-1.796;2023-08-17T11:22:27;6.55;;;2.90;;
78410;SDS011;67706;51.074;-1.796;2023-08-17T11:24:53;6.53;;;2.85;;
78410;SDS011;67706;51.074;-1.796;2023-08-17T11:27:20;3.90;;;2.65;;
78410;SDS011;67706;51.074;-1.796;2023-08-17T11:29:46;6.07;;;2.70;;
78410;SDS011;67706;51.074;-1.796;2023-08-17T11:32:15;5.68;;;2.65;;
78410;SDS011;67706;51.074;-1.796;2023-08-17T11:34:42;5.63;;;2.95;;
78410;SDS011;67706;51.074;-1.796;2023-08-17T11:37:10;4.57;;;2.55;;
78410;SDS011;67706;51.074;-1.796;2023-08-17T11:39:37;6.80;;;3.05;;
78410;SDS011;67706;51.074;-1.796;2023-08-17T11:42:03;5.30;;;2.67;;
78410;SDS011;67706;51.074;-1.796;2023-08-17T11:44:30;4.70;;;2.75;;
78410;SDS011;67706;51.074;-1.796;2023-08-17T11:46:56;7.57;;;2.88;;
78410;SDS011;67706;51.074;-1.796;2023-08-17T11:49:22;8.95;;;2.70;;
78410;SDS011;67706;51.074;-1.796;2023-08-17T11:51:50;4.78;;;3.17;;
78410;SDS011;67706;51.074;-1.796;2023-08-17T11:54:17;4.57;;;2.55;;
78410;SDS011;67706;51.074;-1.796;2023-08-17T11:56:43;4.55;;;2.60;;
78410;SDS011;67706;51.074;-1.796;2023-08-17T11:59:09;4.10;;;2.70;;
78410;SDS011;67706;51.074;-1.796;2023-08-17T12:01:36;5.20;;;2.60;;
78410;SDS011;67706;51.074;-1.796;2023-08-17T12:04:03;3.78;;;2.60;;
78410;SDS011;67706;51.074;-1.796;2023-08-17T12:06:30;3.67;;;2.60;;
78410;SDS011;67706;51.074;-1.796;2023-08-17T12:08:57;4.93;;;2.10;;
78410;SDS011;67706;51.074;-1.796;2023-08-17T12:11:23;4.05;;;2.58;;
78410;SDS011;67706;51.074;-1.796;2023-08-17T12:13:50;5.05;;;2.78;;
78410;SDS011;67706;51.074;-1.796;2023-08-17T12:16:16;4.70;;;2.83;;
78410;SDS011;67706;51.074;-1.796;2023-08-17T12:18:43;6.90;;;3.45;;
78410;SDS011;67706;51.074;-1.796;2023-08-17T12:21:10;4.75;;;2.67;;
78410;SDS011;67706;51.074;-1.796;2023-08-17T12:23:36;4.57;;;2.58;;
78410;SDS011;67706;51.074;-1.796;2023-08-17T12:26:02;3.47;;;2.33;;
78410;SDS011;67706;51.074;-1.796;2023-08-17T12:28:28;6.55;;;2.63;;
78410;SDS011;67706;51.074;-1.796;2023-08-17T12:30:58;4.65;;;2.58;;
78410;SDS011;67706;51.074;-1.796;2023-08-17T12:33:25;4.60;;;2.50;;
78410;SDS011;67706;51.074;-1.796;2023-08-17T12:35:52;5.35;;;2.58;;
78410;SDS011;67706;51.074;-1.796;2023-08-17T12:38:18;3.78;;;2.50;;
78410;SDS011;67706;51.074;-1.796;2023-08-17T12:40:44;4.85;;;2.35;;
78410;SDS011;67706;51.074;-1.796;2023-08-17T12:43:11;3.35;;;2.30;;
78410;SDS011;67706;51.074;-1.796;2023-08-17T12:45:37;2.42;;;1.75;;
78410;SDS011;67706;51.074;-1.796;2023-08-17T12:48:03;4.32;;;1.88;;
78410;SDS011;67706;51.074;-1.796;2023-08-17T12:50:29;6.93;;;2.13;;
78410;SDS011;67706;51.074;-1.796;2023-08-17T12:52:55;5.22;;;1.90;;
78410;SDS011;67706;51.074;-1.796;2023-08-17T12:55:21;3.25;;;2.03;;
78410;SDS011;67706;51.074;-1.796;2023-08-17T12:57:47;5.53;;;2.03;;
78410;SDS011;67706;51.074;-1.796;2023-08-17T13:00:15;2.70;;;1.63;;
78410;SDS011;67706;51.074;-1.796;2023-08-17T13:02:41;3.88;;;1.80;;
78410;SDS011;67706;51.074;-1.796;2023-08-17T13:05:07;2.10;;;1.70;;
78410;SDS011;67706;51.074;-1.796;2023-08-17T13:07:33;5.68;;;1.65;;
78410;SDS011;67706;51.074;-1.796;2023-08-17T13:09:59;2.75;;;1.40;;
78410;SDS011;67706;51.074;-1.796;2023-08-17T13:12:25;1.90;;;1.58;;
78410;SDS011;67706;51.074;-1.796;2023-08-17T13:14:52;2.30;;;1.50;;
78410;SDS011;67706;51.074;-1.796;2023-08-17T13:17:18;2.70;;;1.60;;
78410;SDS011;67706;51.074;-1.796;2023-08-17T13:19:44;1.98;;;1.42;;
78410;SDS011;67706;51.074;-1.796;2023-08-17T13:22:10;3.20;;;1.65;;
78410;SDS011;67706;51.074;-1.796;2023-08-17T13:24:36;2.72;;;1.70;;
78410;SDS011;67706;51.074;-1.796;2023-08-17T13:27:03;2.00;;;1.50;;
78410;SDS011;67706;51.074;-1.796;2023-08-17T13:29:29;1.73;;;1.55;;
78410;SDS011;67706;51.074;-1.796;2023-08-17T13:31:55;3.08;;;1.80;;
78410;SDS011;67706;51.074;-1.796;2023-08-17T13:34:22;2.67;;;1.50;;
78410;SDS011;67706;51.074;-1.796;2023-08-17T13:36:48;2.28;;;1.48;;
78410;SDS011;67706;51.074;-1.796;2023-08-17T13:39:14;4.82;;;1.60;;
78410;SDS011;67706;51.074;-1.796;2023-08-17T13:41:40;2.53;;;1.40;;
78410;SDS011;67706;51.074;-1.796;2023-08-17T13:44:08;2.55;;;1.50;;
78410;SDS011;67706;51.074;-1.796;2023-08-17T13:46:34;2.75;;;1.35;;
78410;SDS011;67706;51.074;-1.796;2023-08-17T13:49:02;3.92;;;1.48;;
78410;SDS011;67706;51.074;-1.796;2023-08-17T13:51:40;3.15;;;2.40;;
78410;SDS011;67706;51.074;-1.796;2023-08-17T13:54:14;1.98;;;1.30;;
78410;SDS011;67706;51.074;-1.796;2023-08-17T13:56:41;3.67;;;1.48;;
78410;SDS011;67706;51.074;-1.796;2023-08-17T13:59:08;1.80;;;1.38;;
78410;SDS011;67706;51.074;-1.796;2023-08-17T14:01:35;3.58;;;1.73;;
78410;SDS011;67706;51.074;-1.796;2023-08-17T14:04:01;4.00;;;1.55;;
78410;SDS011;67706;51.074;-1.796;2023-08-17T14:06:28;2.40;;;1.80;;
78410;SDS011;67706;51.074;-1.796;2023-08-17T14:08:55;3.20;;;1.52;;
78410;SDS011;67706;51.074;-1.796;2023-08-17T14:11:21;2.40;;;1.40;;
78410;SDS011;67706;51.074;-1.796;2023-08-17T14:13:47;3.10;;;1.60;;
78410;SDS011;67706;51.074;-1.796;2023-08-17T14:16:13;2.00;;;1.52;;
78410;SDS011;67706;51.074;-1.796;2023-08-17T14:18:39;1.42;;;1.23;;
78410;SDS011;67706;51.074;-1.796;2023-08-17T14:21:05;4.07;;;1.45;;
78410;SDS011;67706;51.074;-1.796;2023-08-17T14:23:31;2.17;;;1.55;;
78410;SDS011;67706;51.074;-1.796;2023-08-17T14:25:58;2.80;;;1.52;;
78410;SDS011;67706;51.074;-1.796;2023-08-17T14:28:24;2.58;;;1.40;;
78410;SDS011;67706;51.074;-1.796;2023-08-17T14:30:51;3.28;;;1.50;;
78410;SDS011;67706;51.074;-1.796;2023-08-17T14:33:17;6.20;;;1.38;;
78410;SDS011;67706;51.074;-1.796;2023-08-17T14:35:43;3.90;;;1.60;;
78410;SDS011;67706;51.074;-1.796;2023-08-17T14:38:09;2.50;;;1.30;;
78410;SDS011;67706;51.074;-1.796;2023-08-17T14:40:38;2.00;;;1.50;;
78410;SDS011;67706;51.074;-1.796;2023-08-17T14:43:08;3.08;;;1.60;;
78410;SDS011;67706;51.074;-1.796;2023-08-17T14:45:34;2.22;;;1.85;;
78410;SDS011;67706;51.074;-1.796;2023-08-17T14:48:00;3.83;;;1.70;;
78410;SDS011;67706;51.074;-1.796;2023-08-17T14:50:27;2.33;;;1.40;;
78410;SDS011;67706;51.074;-1.796;2023-08-17T14:52:53;3.08;;;1.83;;
78410;SDS011;67706;51.074;-1.796;2023-08-17T14:55:19;2.58;;;1.65;;
78410;SDS011;67706;51.074;-1.796;2023-08-17T14:57:45;2.30;;;1.77;;
78410;SDS011;67706;51.074;-1.796;2023-08-17T15:00:13;4.13;;;1.90;;
78410;SDS011;67706;51.074;-1.796;2023-08-17T15:02:39;3.88;;;2.38;;
78410;SDS011;67706;51.074;-1.796;2023-08-17T15:05:05;3.58;;;2.40;;
78410;SDS011;67706;51.074;-1.796;2023-08-17T15:07:32;5.10;;;1.75;;
78410;SDS011;67706;51.074;-1.796;2023-08-17T15:09:58;4.32;;;1.60;;
78410;SDS011;67706;51.074;-1.796;2023-08-17T15:12:24;2.63;;;1.70;;
78410;SDS011;67706;51.074;-1.796;2023-08-17T15:14:50;3.80;;;2.53;;
78410;SDS011;67706;51.074;-1.796;2023-08-17T15:17:17;3.08;;;1.88;;
78410;SDS011;67706;51.074;-1.796;2023-08-17T15:19:43;2.85;;;1.80;;
78410;SDS011;67706;51.074;-1.796;2023-08-17T15:22:09;2.63;;;1.50;;
78410;SDS011;67706;51.074;-1.796;2023-08-17T15:24:35;3.10;;;1.40;;
78410;SDS011;67706;51.074;-1.796;2023-08-17T15:27:01;3.58;;;1.73;;
78410;SDS011;67706;51.074;-1.796;2023-08-17T15:29:27;4.15;;;1.60;;
78410;SDS011;67706;51.074;-1.796;2023-08-17T15:31:53;5.85;;;1.88;;
78410;SDS011;67706;51.074;-1.796;2023-08-17T15:34:20;2.92;;;1.63;;
78410;SDS011;67706;51.074;-1.796;2023-08-17T15:36:46;4.47;;;1.67;;
78410;SDS011;67706;51.074;-1.796;2023-08-17T15:39:12;4.18;;;1.48;;
78410;SDS011;67706;51.074;-1.796;2023-08-17T15:41:38;3.83;;;2.30;;
78410;SDS011;67706;51.074;-1.796;2023-08-17T15:44:04;3.42;;;2.22;;
78410;SDS011;67706;51.074;-1.796;2023-08-17T15:46:30;4.20;;;2.15;;
78410;SDS011;67706;51.074;-1.796;2023-08-17T15:48:57;3.75;;;1.63;;
78410;SDS011;67706;51.074;-1.796;2023-08-17T15:51:23;2.97;;;1.55;;
78410;SDS011;67706;51.074;-1.796;2023-08-17T15:53:52;4.07;;;1.52;;